Time;durP1;ratioP1;P1;durP2;ratioP2;P2;SDS_P1;SDS_P2;PMS_P1;PMS_P2;Temp;Humidity;BMP_temperature;BMP_pressure;BME280_temperature;BME280_humidity;BME280_pressure;Samples;Min_cycle;Max_cycle;Signal;HPM_P1;HPM_P2
2022/03/24 00:01:07;;;;;;;26.43;22.73;;;7.80;1.00;8.30;101719.00;;;;4983320;28;20566;-80
2022/03/24 00:03:35;;;;;;;30.43;23.63;;;7.80;1.00;8.40;101727.00;;;;4984867;28;20490;-80
2022/03/24 00:06:04;;;;;;;30.63;24.43;;;7.80;1.00;8.30;101715.00;;;;4989528;28;20470;-80
2022/03/24 00:08:33;;;;;;;30.40;23.97;;;7.80;1.00;8.20;101714.00;;;;4983511;28;20464;-80
2022/03/24 00:11:01;;;;;;;28.70;25.60;;;7.70;1.00;8.10;101703.00;;;;4985219;28;20470;-81
2022/03/24 00:13:29;;;;;;;26.77;23.87;;;7.70;1.00;8.00;101722.00;;;;4996873;28;20486;-81
2022/03/24 00:16:00;;;;;;;31.30;23.47;;;7.60;1.00;7.90;101711.00;;;;4987852;28;20447;-80
2022/03/24 00:18:31;;;;;;;27.53;23.63;;;7.50;1.00;7.90;101717.00;;;;4989761;28;20436;-81
2022/03/24 00:21:00;;;;;;;27.80;22.73;;;7.40;1.00;7.90;101710.00;;;;4995976;28;20455;-82
2022/03/24 00:23:29;;;;;;;25.93;23.13;;;7.40;1.00;7.90;101718.00;;;;4986412;28;20490;-82
2022/03/24 00:25:59;;;;;;;34.33;23.53;;;7.40;1.00;7.90;101718.00;;;;4985632;28;20542;-80
2022/03/24 00:28:28;;;;;;;27.80;24.77;;;7.40;1.00;7.70;101701.00;;;;4983210;28;20447;-81
2022/03/24 00:30:56;;;;;;;30.50;25.00;;;7.30;1.00;7.80;101684.00;;;;4985748;28;20571;-80
2022/03/24 00:33:26;;;;;;;26.60;21.80;;;7.20;1.00;7.60;101710.00;;;;4982940;28;20509;-82
2022/03/24 00:35:55;;;;;;;25.90;23.10;;;7.10;1.00;7.70;101712.00;;;;4986253;28;20456;-86
2022/03/24 00:38:24;;;;;;;28.87;21.53;;;7.10;1.00;7.60;101711.00;;;;4994007;28;20462;-82
2022/03/24 00:40:54;;;;;;;25.73;22.60;;;7.10;1.00;7.60;101709.00;;;;4990341;28;20850;-82
2022/03/24 00:43:30;;;;;;;25.63;20.33;;;7.10;1.00;7.60;101716.00;;;;5002304;28;21184;-81
2022/03/24 00:45:58;;;;;;;28.87;22.63;;;7.40;1.00;7.60;101712.00;;;;4982600;28;20458;-82
2022/03/24 00:48:29;;;;;;;26.10;22.03;;;7.10;1.00;7.50;101712.00;;;;4981882;28;21496;-82
2022/03/24 00:50:57;;;;;;;29.63;23.23;;;7.00;1.00;7.50;101697.00;;;;4982489;28;20454;-81
2022/03/24 00:53:25;;;;;;;29.93;22.17;;;7.20;1.00;7.60;101704.00;;;;4990338;28;20586;-83
2022/03/24 00:55:55;;;;;;;32.30;23.07;;;7.10;1.00;7.60;101688.00;;;;4995727;28;20444;-81
2022/03/24 00:58:24;;;;;;;25.20;20.97;;;7.10;1.00;7.60;101698.00;;;;4996911;28;20514;-80
2022/03/24 01:00:54;;;;;;;24.77;21.17;;;7.00;1.00;7.50;101700.00;;;;4985767;28;20452;-81
2022/03/24 01:03:23;;;;;;;25.93;20.80;;;7.00;1.00;7.40;101700.00;;;;4979966;28;20525;-82
2022/03/24 01:05:52;;;;;;;25.93;20.93;;;7.00;1.00;7.40;101694.00;;;;4983156;28;21031;-81
2022/03/24 01:08:22;;;;;;;22.83;20.07;;;7.00;1.00;7.40;101691.00;;;;4983743;28;20968;-83
2022/03/24 01:10:55;;;;;;;28.60;21.53;;;6.90;1.00;7.60;101689.00;;;;4990458;28;20452;-82
2022/03/24 01:13:23;;;;;;;27.07;23.13;;;6.90;1.00;7.50;101699.00;;;;4987389;28;20478;-82
2022/03/24 01:15:52;;;;;;;28.10;23.10;;;6.90;1.00;7.50;101693.00;;;;4991039;28;20834;-81
2022/03/24 01:18:21;;;;;;;27.53;22.90;;;6.90;1.00;7.50;101687.00;;;;4991708;28;20451;-81
2022/03/24 01:20:49;;;;;;;35.63;24.30;;;6.90;1.00;7.50;101695.00;;;;4997571;28;20435;-82
2022/03/24 01:23:23;;;;;;;28.67;22.43;;;6.90;1.00;7.40;101684.00;;;;4989202;28;20855;-81
2022/03/24 01:25:51;;;;;;;24.40;20.70;;;6.90;1.00;7.40;101688.00;;;;4969500;28;20477;-82
2022/03/24 01:28:19;;;;;;;25.17;21.53;;;6.90;1.00;7.40;101686.00;;;;4983351;28;20461;-82
2022/03/24 01:30:48;;;;;;;27.27;21.27;;;6.80;1.00;7.50;101682.00;;;;4981617;28;20474;-81
2022/03/24 01:33:16;;;;;;;27.80;22.47;;;6.80;1.00;7.20;101677.00;;;;4984259;28;20494;-82
2022/03/24 01:35:45;;;;;;;25.07;22.40;;;6.80;1.00;7.10;101672.00;;;;4981408;28;20963;-82
2022/03/24 01:38:16;;;;;;;28.87;22.23;;;6.70;1.00;7.10;101682.00;;;;4986836;28;20444;-81
2022/03/24 01:40:46;;;;;;;30.33;22.03;;;6.60;1.00;7.00;101689.00;;;;4984098;28;20463;-82
2022/03/24 01:43:14;;;;;;;28.23;21.63;;;6.60;1.00;6.90;101694.00;;;;4966202;28;21005;-83
2022/03/24 01:45:43;;;;;;;29.10;22.37;;;6.50;1.00;6.90;101682.00;;;;4978694;28;20517;-81
2022/03/24 01:48:14;;;;;;;25.13;21.80;;;6.40;1.00;6.80;101685.00;;;;4987065;28;20451;-82
2022/03/24 01:50:45;;;;;;;28.20;22.50;;;6.40;1.00;6.90;101666.00;;;;4982959;28;20486;-82
2022/03/24 01:53:13;;;;;;;25.53;22.00;;;6.30;1.00;6.70;101675.00;;;;4984271;28;20540;-82
2022/03/24 01:55:42;;;;;;;25.30;20.00;;;6.30;1.00;6.80;101668.00;;;;4996636;28;20459;-81
2022/03/24 01:58:13;;;;;;;25.40;21.67;;;6.30;1.00;6.70;101673.00;;;;4982209;28;20471;-80
2022/03/24 02:00:44;;;;;;;27.20;21.47;;;6.30;1.00;6.70;101661.00;;;;4982872;28;20464;-81
2022/03/24 02:03:14;;;;;;;22.47;19.97;;;6.20;1.00;6.70;101678.00;;;;4981776;28;20474;-81
2022/03/24 02:05:43;;;;;;;25.50;21.43;;;6.30;1.00;6.70;101684.00;;;;4982698;28;20526;-81
2022/03/24 02:08:13;;;;;;;27.33;21.73;;;6.20;1.00;6.60;101673.00;;;;4978497;28;20456;-82
2022/03/24 02:10:42;;;;;;;26.80;20.30;;;6.20;1.00;6.60;101682.00;;;;5000790;28;20453;-81
2022/03/24 02:13:22;;;;;;;29.43;21.60;;;6.20;1.00;6.60;101679.00;;;;5011540;28;20522;-82
2022/03/24 02:16:03;;;;;;;24.03;20.80;;;6.10;1.00;6.50;101669.00;;;;5013502;28;20455;-80
2022/03/24 02:18:32;;;;;;;27.87;21.77;;;6.10;1.00;6.50;101654.00;;;;5002969;28;20457;-83
2022/03/24 02:21:00;;;;;;;30.17;21.03;;;6.00;1.00;6.40;101677.00;;;;5009966;28;20459;-83
2022/03/24 02:23:30;;;;;;;27.27;20.37;;;6.00;1.00;6.40;101669.00;;;;4997214;28;20563;-83
2022/03/24 02:25:59;;;;;;;28.90;22.27;;;5.90;1.00;6.50;101678.00;;;;4997002;28;20510;-82
2022/03/24 02:28:27;;;;;;;25.40;21.93;;;6.00;1.00;6.60;101678.00;;;;4998807;28;20471;-83
2022/03/24 02:30:55;;;;;;;25.40;21.30;;;6.00;1.00;6.30;101672.00;;;;4990348;28;20480;-81
2022/03/24 02:33:24;;;;;;;24.60;21.50;;;5.90;1.00;6.20;101670.00;;;;4989058;28;20562;-82
2022/03/24 02:35:56;;;;;;;27.97;21.87;;;5.80;1.00;6.20;101661.00;;;;4995882;28;20458;-81
2022/03/24 02:38:25;;;;;;;28.37;21.67;;;5.70;1.00;52.70;159280.00;;;;4991705;28;20456;-81
2022/03/24 02:40:56;;;;;;;25.20;21.17;;;5.80;1.00;6.20;101673.00;;;;5000934;28;20440;-83
2022/03/24 02:43:24;;;;;;;25.03;20.93;;;5.90;1.00;6.10;101667.00;;;;5002960;28;20459;-83
2022/03/24 02:45:54;;;;;;;25.60;21.43;;;5.70;1.00;6.10;101672.00;;;;5003256;28;20443;-84
2022/03/24 02:48:23;;;;;;;21.97;19.60;;;5.60;1.00;6.30;101634.00;;;;4999951;28;20465;-85
2022/03/24 02:50:51;;;;;;;29.20;22.23;;;5.70;1.00;6.30;101672.00;;;;5006148;28;20527;-83
2022/03/24 02:53:19;;;;;;;29.03;22.00;;;5.80;1.00;6.30;101687.00;;;;4994551;28;20490;-82
2022/03/24 02:55:48;;;;;;;28.03;21.73;;;5.80;1.00;6.20;101673.00;;;;4987396;28;20464;-81
2022/03/24 02:58:17;;;;;;;27.30;22.83;;;5.70;1.00;6.30;101652.00;;;;4988239;28;20557;-83
2022/03/24 03:00:46;;;;;;;25.23;20.43;;;5.70;1.00;6.30;101667.00;;;;4987171;28;20519;-82
2022/03/24 03:03:16;;;;;;;25.30;21.13;;;5.70;1.00;6.20;101654.00;;;;4991380;28;20491;-83
2022/03/24 03:05:44;;;;;;;25.63;21.60;;;5.70;1.00;6.30;101665.00;;;;4991558;28;20560;-82
2022/03/24 03:08:13;;;;;;;23.70;20.53;;;5.70;1.00;6.30;101669.00;;;;4987872;28;20455;-83
2022/03/24 03:10:42;;;;;;;24.17;19.47;;;5.70;1.00;6.30;101675.00;;;;4984757;28;20510;-83
2022/03/24 03:13:10;;;;;;;25.97;19.23;;;5.60;1.00;6.30;101677.00;;;;4987166;28;20497;-84
2022/03/24 03:15:40;;;;;;;24.60;20.23;;;5.70;1.00;6.00;101679.00;;;;4986680;28;20490;-82
2022/03/24 03:18:08;;;;;;;26.17;22.23;;;5.80;1.00;6.00;101667.00;;;;4988342;28;20462;-83
2022/03/24 03:20:37;;;;;;;19.60;17.50;;;5.60;1.00;6.00;101678.00;;;;4995505;28;20467;-83
2022/03/24 03:23:05;;;;;;;28.17;20.90;;;5.60;1.00;6.10;101665.00;;;;4986163;28;20483;-82
2022/03/24 03:25:34;;;;;;;23.47;20.67;;;5.60;1.00;6.00;101682.00;;;;4981330;28;20459;-82
2022/03/24 03:28:04;;;;;;;23.77;21.17;;;5.60;1.00;6.20;101668.00;;;;4987646;28;20827;-83
2022/03/24 03:30:32;;;;;;;25.87;20.10;;;5.60;1.00;6.00;101653.00;;;;4983178;28;20487;-82
2022/03/24 03:33:02;;;;;;;29.33;20.97;;;5.60;1.00;6.00;101653.00;;;;4985908;28;20471;-83
2022/03/24 03:35:31;;;;;;;21.00;18.50;;;5.50;1.00;6.00;101680.00;;;;4992023;28;20636;-82
2022/03/24 03:37:59;;;;;;;27.30;20.87;;;5.50;1.00;6.00;101671.00;;;;4993968;28;20811;-83
2022/03/24 03:40:28;;;;;;;24.33;19.90;;;5.50;1.00;5.90;101684.00;;;;4989709;28;20444;-82
2022/03/24 03:42:57;;;;;;;22.87;19.57;;;5.40;1.00;5.80;101682.00;;;;4987875;28;20455;-82
2022/03/24 03:45:25;;;;;;;20.30;17.87;;;5.40;1.00;5.70;101674.00;;;;4971157;28;20466;-82
2022/03/24 03:47:54;;;;;;;23.17;20.13;;;5.30;1.00;5.90;101691.00;;;;4991959;28;20482;-83
2022/03/24 03:50:25;;;;;;;28.60;21.07;;;5.30;1.00;5.90;101635.00;;;;4988934;28;20540;-83
2022/03/24 03:52:54;;;;;;;31.03;19.53;;;5.40;1.00;5.90;101690.00;;;;4987980;28;20511;-83
2022/03/24 03:55:22;;;;;;;25.83;21.00;;;5.40;1.00;5.80;101689.00;;;;4991763;28;20447;-84
2022/03/24 03:57:51;;;;;;;28.00;21.17;;;5.30;1.00;5.70;101650.00;;;;4995219;28;20494;-81
2022/03/24 04:03:06;;;;;;;27.97;20.93;;;5.50;1.00;5.60;101675.00;;;;5006832;28;20500;-83
2022/03/24 04:05:36;;;;;;;27.60;20.83;;;5.20;1.00;5.50;101688.00;;;;4991323;28;20522;-81
2022/03/24 04:08:07;;;;;;;30.87;21.03;;;5.10;1.00;5.40;101670.00;;;;4988093;28;20463;-81
2022/03/24 04:10:36;;;;;;;24.07;20.50;;;5.00;1.00;5.30;101682.00;;;;4983711;28;20447;-81
2022/03/24 04:13:04;;;;;;;26.23;19.40;;;4.90;1.00;5.10;101690.00;;;;4987363;28;20494;-81
2022/03/24 04:15:34;;;;;;;26.10;19.43;;;5.00;1.00;5.00;101674.00;;;;4988314;28;20501;-81
2022/03/24 04:18:03;;;;;;;23.00;19.70;;;5.00;1.00;5.20;101666.00;;;;4984933;28;20455;-81
2022/03/24 04:20:31;;;;;;;24.70;20.37;;;4.80;1.00;5.20;101663.00;;;;4999602;28;20503;-83
2022/03/24 04:23:04;;;;;;;27.37;22.00;;;4.70;1.00;5.10;101683.00;;;;5000682;28;20431;-83
2022/03/24 04:25:33;;;;;;;25.17;20.67;;;4.70;1.00;5.00;101670.00;;;;5003261;28;20436;-84
2022/03/24 04:28:05;;;;;;;23.40;18.67;;;4.60;1.00;5.30;101679.00;;;;5005413;28;20447;-85
2022/03/24 04:30:35;;;;;;;25.13;20.00;;;4.60;1.00;5.30;101651.00;;;;4999115;28;20464;-84
2022/03/24 04:33:05;;;;;;;26.47;20.53;;;4.70;1.00;5.40;101680.00;;;;4998929;28;20475;-82
2022/03/24 04:35:34;;;;;;;27.40;19.90;;;4.80;1.00;5.30;101681.00;;;;4986944;28;20452;-82
2022/03/24 04:38:05;;;;;;;21.87;19.17;;;4.80;1.00;5.20;101696.00;;;;4987400;28;20539;-83
2022/03/24 04:40:33;;;;;;;22.70;19.27;;;4.80;1.00;5.20;101704.00;;;;4981446;28;20454;-83
2022/03/24 04:43:02;;;;;;;23.67;20.00;;;4.80;1.00;5.10;101695.00;;;;4982301;28;20559;-83
2022/03/24 04:45:33;;;;;;;26.67;20.07;;;4.70;1.00;5.00;101681.00;;;;4987847;28;20462;-83
2022/03/24 04:48:03;;;;;;;26.80;21.00;;;4.70;1.00;5.10;101694.00;;;;4983119;28;20495;-82
2022/03/24 04:50:32;;;;;;;26.77;20.77;;;4.60;1.00;5.00;101686.00;;;;4994894;28;20526;-84
2022/03/24 04:53:00;;;;;;;22.67;19.20;;;4.60;1.00;5.00;101684.00;;;;4997265;28;20462;-85
2022/03/24 04:55:30;;;;;;;26.63;20.77;;;4.60;1.00;5.00;101697.00;;;;4998497;28;20450;-83
2022/03/24 04:57:58;;;;;;;24.03;20.53;;;4.60;1.00;5.00;101698.00;;;;4974400;28;20451;-86
2022/03/24 05:00:26;;;;;;;24.33;20.83;;;4.60;1.00;5.00;101689.00;;;;5000701;28;20455;-84
2022/03/24 05:02:55;;;;;;;28.20;19.90;;;4.60;1.00;5.00;101705.00;;;;5006091;28;20443;-86
2022/03/24 05:05:23;;;;;;;27.57;18.57;;;4.60;1.00;5.00;101695.00;;;;5006755;28;20458;-85
2022/03/24 05:07:51;;;;;;;24.57;20.97;;;4.50;1.00;4.90;101696.00;;;;4997931;28;20443;-86
2022/03/24 05:10:20;;;;;;;25.00;19.47;;;4.50;1.00;5.00;101713.00;;;;5000963;28;20531;-85
2022/03/24 05:12:49;;;;;;;27.33;20.67;;;4.50;1.00;4.90;101692.00;;;;4998419;28;20511;-86
2022/03/24 05:15:18;;;;;;;23.20;18.60;;;4.50;1.00;4.80;101703.00;;;;4999421;28;20474;-83
2022/03/24 05:17:46;;;;;;;26.40;19.40;;;4.40;1.00;4.80;101695.00;;;;4978547;28;20459;-82
2022/03/24 05:20:15;;;;;;;25.10;20.50;;;4.30;1.00;4.70;101689.00;;;;4986454;28;20521;-81
2022/03/24 05:22:43;;;;;;;28.50;20.63;;;4.30;1.00;4.70;101700.00;;;;4989859;28;20467;-83
2022/03/24 05:25:12;;;;;;;25.77;19.73;;;4.60;1.00;4.70;101692.00;;;;4991796;28;20466;-85
2022/03/24 05:27:40;;;;;;;28.50;19.83;;;4.30;1.00;4.80;101705.00;;;;5002120;28;20466;-82
2022/03/24 05:30:11;;;;;;;29.90;21.13;;;4.30;1.00;4.80;101696.00;;;;4995357;28;20979;-83
2022/03/24 05:32:41;;;;;;;26.90;19.57;;;4.40;1.00;4.90;101690.00;;;;4991568;28;20482;-82
2022/03/24 05:35:11;;;;;;;26.50;19.17;;;4.40;1.00;5.00;101700.00;;;;4989742;28;20513;-82
2022/03/24 05:37:40;;;;;;;30.43;19.67;;;4.40;1.00;4.90;101701.00;;;;4981894;28;20482;-84
2022/03/24 05:40:11;;;;;;;24.87;19.23;;;4.40;1.00;4.90;101701.00;;;;4984369;28;20470;-87
2022/03/24 05:42:39;;;;;;;24.43;19.70;;;4.40;1.00;4.90;101707.00;;;;4991111;28;20463;-83
2022/03/24 05:45:10;;;;;;;28.50;20.17;;;4.40;1.00;5.00;101715.00;;;;4989053;28;20525;-84
2022/03/24 05:47:39;;;;;;;25.80;18.70;;;4.50;1.00;5.20;101704.00;;;;5003912;28;20464;-82
2022/03/24 05:50:11;;;;;;;27.43;19.57;;;4.50;1.00;5.30;101709.00;;;;4986277;28;20463;-83
2022/03/24 05:52:57;;;;;;;29.90;21.87;;;4.70;1.00;5.40;101719.00;;;;4983367;28;21002;-82
2022/03/24 05:55:26;;;;;;;26.63;19.90;;;4.80;1.00;5.50;101707.00;;;;4986611;28;20491;-83
2022/03/24 05:57:54;;;;;;;27.30;19.13;;;5.00;1.00;5.50;101709.00;;;;4983305;28;20464;-83
2022/03/24 06:00:24;;;;;;;26.93;20.40;;;5.00;1.00;5.50;101722.00;;;;4984423;28;20454;-82
2022/03/24 06:02:53;;;;;;;24.37;19.67;;;5.00;1.00;5.70;101674.00;;;;4988090;28;20454;-83
2022/03/24 06:05:23;;;;;;;25.73;20.17;;;5.10;1.00;5.80;101720.00;;;;5001902;28;20460;-82
2022/03/24 06:07:51;;;;;;;24.40;18.00;;;5.30;1.00;5.80;101721.00;;;;4993985;28;20474;-85
2022/03/24 06:10:20;;;;;;;21.37;18.43;;;5.40;1.00;6.00;101688.00;;;;4995725;28;20561;-84
2022/03/24 06:12:48;;;;;;;27.40;19.87;;;5.50;1.00;6.10;101714.00;;;;5003622;28;20448;-85
2022/03/24 06:15:33;;;;;;;30.03;19.80;;;5.60;1.00;6.20;101713.00;;;;5006430;28;20541;-85
2022/03/24 06:18:02;;;;;;;25.30;19.10;;;5.70;1.00;6.40;101723.00;;;;5013372;28;20428;-85
2022/03/24 06:20:30;;;;;;;23.37;19.27;;;5.80;1.00;6.40;101730.00;;;;4990992;28;20471;-83
2022/03/24 06:23:03;;;;;;;21.90;17.90;;;5.90;1.00;6.50;101730.00;;;;4985619;28;20469;-83
2022/03/24 06:25:33;;;;;;;24.43;19.03;;;6.00;1.00;6.70;101721.00;;;;5000738;28;20475;-83
2022/03/24 06:28:01;;;;;;;22.73;18.20;;;6.20;1.00;6.90;101729.00;;;;4983706;28;21059;-84
2022/03/24 06:30:31;;;;;;;22.60;17.20;;;6.30;1.00;6.80;101728.00;;;;4991918;28;20428;-85
2022/03/24 06:33:00;;;;;;;25.33;18.30;;;6.40;1.00;7.00;101729.00;;;;5000636;28;20435;-86
2022/03/24 06:35:29;;;;;;;27.30;19.67;;;6.50;1.00;7.00;101724.00;;;;4998382;28;20479;-83
2022/03/24 06:37:57;;;;;;;22.97;17.20;;;6.60;1.00;7.20;101721.00;;;;4995027;28;20526;-83
2022/03/24 06:40:25;;;;;;;24.93;19.33;;;6.70;1.00;7.30;101741.00;;;;4995918;28;20450;-83
2022/03/24 06:42:54;;;;;;;20.77;17.87;;;6.80;1.00;7.40;101722.00;;;;4990649;28;20549;-82
2022/03/24 06:45:23;;;;;;;28.43;18.70;;;7.20;1.00;7.40;101720.00;;;;4988465;28;20935;-83
2022/03/24 06:47:53;;;;;;;24.23;18.37;;;7.00;1.00;7.50;101731.00;;;;4991249;28;20817;-83
2022/03/24 06:50:22;;;;;;;26.70;18.67;;;7.00;1.00;7.50;101741.00;;;;4995043;28;20535;-83
2022/03/24 06:52:50;;;;;;;29.50;18.80;;;7.10;1.00;7.60;101728.00;;;;4989170;28;20494;-83
2022/03/24 06:55:18;;;;;;;24.43;18.00;;;7.20;1.00;7.70;101692.00;;;;4991462;28;20482;-83
2022/03/24 06:57:47;;;;;;;26.90;18.57;;;7.40;1.00;7.80;101728.00;;;;4990561;28;20466;-83
2022/03/24 07:00:16;;;;;;;21.60;17.67;;;7.40;1.00;7.90;101740.00;;;;4992671;28;20461;-83
2022/03/24 07:02:46;;;;;;;22.80;18.80;;;7.50;1.00;8.00;101732.00;;;;4989297;28;20487;-82
2022/03/24 07:05:16;;;;;;;21.80;17.60;;;7.60;1.00;8.00;101711.00;;;;4992123;28;20483;-83
2022/03/24 07:07:45;;;;;;;22.67;17.10;;;7.60;1.00;8.10;101732.00;;;;4988113;28;20473;-83
2022/03/24 07:10:13;;;;;;;23.83;17.97;;;7.70;1.00;8.10;101734.00;;;;4989453;28;20499;-83
2022/03/24 07:12:42;;;;;;;25.70;19.03;;;7.70;1.00;8.20;101731.00;;;;4986342;28;20973;-84
2022/03/24 07:15:12;;;;;;;22.33;17.40;;;7.80;1.00;8.30;101737.00;;;;4990934;28;20503;-83
2022/03/24 07:17:40;;;;;;;20.30;17.10;;;7.90;1.00;8.40;101735.00;;;;4995048;28;20444;-83
2022/03/24 07:20:10;;;;;;;20.73;16.63;;;8.00;1.00;8.60;101742.00;;;;4995928;28;20440;-83
2022/03/24 07:22:39;;;;;;;23.10;19.70;;;8.10;1.00;8.70;101714.00;;;;4993470;28;20463;-81
2022/03/24 07:25:09;;;;;;;22.97;18.47;;;8.50;1.00;8.80;101739.00;;;;4992351;28;20483;-83
2022/03/24 07:27:38;;;;;;;24.20;18.00;;;8.50;1.00;8.80;101733.00;;;;4992920;28;20458;-82
2022/03/24 07:30:09;;;;;;;22.00;16.77;;;8.50;1.00;8.90;101742.00;;;;5000547;28;20954;-85
2022/03/24 07:32:37;;;;;;;19.17;17.10;;;8.60;1.00;9.00;101742.00;;;;5003728;28;21479;-83
2022/03/24 07:35:08;;;;;;;21.30;18.47;;;8.70;1.00;9.10;101739.00;;;;4981752;28;20475;-83
2022/03/24 07:37:37;;;;;;;20.40;16.47;;;8.70;1.00;9.20;101737.00;;;;4980917;28;20461;-82
2022/03/24 07:40:09;;;;;;;20.47;17.70;;;8.90;1.00;9.20;101740.00;;;;4985416;28;20491;-84
2022/03/24 07:42:39;;;;;;;19.77;16.70;;;8.90;1.00;9.30;101731.00;;;;4984982;28;20543;-82
2022/03/24 07:45:09;;;;;;;20.83;17.60;;;9.30;1.00;9.40;101732.00;;;;4990711;28;20544;-84
2022/03/24 07:48:07;;;;;;;21.60;17.77;;;9.10;1.00;9.40;101737.00;;;;4994224;28;20469;-85
2022/03/24 07:50:35;;;;;;;22.43;17.70;;;9.10;1.00;9.50;101736.00;;;;4999012;28;20446;-84
2022/03/24 07:53:18;;;;;;;22.00;18.90;;;9.20;1.00;9.60;101750.00;;;;4990560;28;20550;-82
2022/03/24 07:55:48;;;;;;;23.87;18.10;;;9.30;1.00;9.60;101734.00;;;;4990353;28;20486;-82
2022/03/24 07:58:20;;;;;;;21.37;17.70;;;9.30;1.00;9.70;101731.00;;;;4989654;28;20467;-82
2022/03/24 08:00:49;;;;;;;19.80;17.17;;;9.40;1.00;9.70;101705.00;;;;4991903;28;20467;-83
2022/03/24 08:03:21;;;;;;;18.50;16.60;;;9.40;1.00;9.80;101744.00;;;;5001540;28;20498;-83
2022/03/24 08:05:50;;;;;;;20.13;16.80;;;9.50;1.00;9.80;101747.00;;;;4998072;28;20479;-84
2022/03/24 08:08:20;;;;;;;22.23;18.17;;;9.60;1.00;9.90;101747.00;;;;4994196;28;20463;-84
2022/03/24 08:10:51;;;;;;;20.83;16.80;;;9.60;1.00;10.00;101746.00;;;;4991015;28;20467;-83
2022/03/24 08:13:21;;;;;;;21.50;18.07;;;9.80;1.00;10.20;101743.00;;;;4982343;28;20574;-83
2022/03/24 08:15:50;;;;;;;19.30;17.20;;;9.90;1.00;10.30;101733.00;;;;4967489;28;20466;-79
2022/03/24 08:18:20;;;;;;;20.50;18.23;;;10.00;1.00;10.30;101741.00;;;;4978945;28;21191;-81
2022/03/24 08:20:49;;;;;;;23.83;16.90;;;10.10;1.00;10.40;101742.00;;;;4984641;28;20527;-80
2022/03/24 08:23:17;;;;;;;20.77;16.10;;;10.20;1.00;10.50;101738.00;;;;4985205;28;20474;-84
2022/03/24 08:25:46;;;;;;;25.30;18.93;;;10.30;1.00;10.60;101735.00;;;;4981962;28;20458;-83
2022/03/24 08:28:16;;;;;;;20.43;16.53;;;10.40;1.00;10.60;101736.00;;;;4979412;28;20456;-83
2022/03/24 08:30:45;;;;;;;25.03;17.70;;;10.50;1.00;10.80;101741.00;;;;4978251;28;20468;-85
2022/03/24 08:33:14;;;;;;;23.93;18.97;;;10.60;1.00;10.80;101722.00;;;;4988066;28;20621;-84
2022/03/24 08:35:43;;;;;;;20.23;18.00;;;10.70;1.00;10.90;101731.00;;;;4989724;28;20550;-84
2022/03/24 08:38:12;;;;;;;20.87;17.57;;;10.80;1.00;11.00;101734.00;;;;4986698;28;20842;-84
2022/03/24 08:40:40;;;;;;;23.40;17.97;;;10.90;1.00;11.10;101733.00;;;;4986485;28;20892;-85
2022/03/24 08:43:09;;;;;;;23.77;17.67;;;11.30;1.00;11.20;101732.00;;;;4975790;28;20490;-80
2022/03/24 08:45:39;;;;;;;24.00;18.63;;;11.10;1.00;11.30;101736.00;;;;4975999;28;20460;-84
2022/03/24 08:48:09;;;;;;;25.53;19.10;;;11.20;1.00;11.30;101739.00;;;;4989149;28;20490;-81
2022/03/24 08:50:37;;;;;;;20.07;16.77;;;11.30;1.00;11.40;101740.00;;;;4990222;28;20474;-81
2022/03/24 08:53:08;;;;;;;27.20;18.50;;;11.30;1.00;11.50;101738.00;;;;4996964;28;20467;-81
2022/03/24 08:55:36;;;;;;;27.27;19.13;;;11.40;1.00;11.60;101742.00;;;;4999828;28;20479;-81
2022/03/24 08:58:05;;;;;;;25.20;20.00;;;11.50;1.00;11.60;101739.00;;;;5008340;28;20466;-82
2022/03/24 09:00:34;;;;;;;25.53;18.17;;;11.60;1.00;11.70;101745.00;;;;5003113;28;21039;-81
2022/03/24 09:03:05;;;;;;;25.20;20.80;;;11.60;1.00;11.80;101744.00;;;;4997777;28;20859;-80
2022/03/24 09:05:34;;;;;;;26.87;19.60;;;11.70;1.00;11.90;101741.00;;;;5012124;28;20455;-83
2022/03/24 09:08:02;;;;;;;24.43;19.00;;;12.00;1.00;12.00;101737.00;;;;4977519;28;20457;-83
2022/03/24 09:10:32;;;;;;;21.37;18.43;;;12.00;1.00;12.10;101732.00;;;;4997824;28;20474;-82
2022/03/24 09:13:00;;;;;;;22.97;19.63;;;12.00;1.00;12.20;101741.00;;;;4992481;28;20451;-82
2022/03/24 09:15:29;;;;;;;27.53;18.93;;;12.10;1.00;12.30;101745.00;;;;4997703;28;20468;-81
2022/03/24 09:17:57;;;;;;;25.47;20.57;;;12.20;1.00;12.30;101736.00;;;;5002720;28;20547;-82
2022/03/24 09:20:27;;;;;;;25.20;20.93;;;12.40;1.00;12.40;101744.00;;;;5009769;28;20427;-83
2022/03/24 09:22:56;;;;;;;22.87;19.20;;;12.50;1.00;12.50;101729.00;;;;5001781;28;20456;-82
2022/03/24 09:25:24;;;;;;;26.37;20.10;;;12.60;1.00;12.60;101739.00;;;;5003083;28;20451;-82
2022/03/24 09:27:52;;;;;;;24.00;20.53;;;12.70;1.00;12.70;101742.00;;;;5008214;28;20439;-82
2022/03/24 09:30:21;;;;;;;23.40;20.13;;;12.80;1.00;12.80;101749.00;;;;5003071;28;20434;-83
2022/03/24 09:32:51;;;;;;;26.77;21.00;;;12.90;1.00;12.90;101748.00;;;;5004476;28;20435;-83
2022/03/24 09:35:19;;;;;;;23.80;20.80;;;12.90;1.00;13.00;101744.00;;;;4995361;28;20464;-83
2022/03/24 09:37:49;;;;;;;28.40;20.23;;;13.00;1.00;13.10;101736.00;;;;4995313;28;20498;-82
2022/03/24 09:40:17;;;;;;;23.13;19.77;;;13.20;1.00;13.10;101739.00;;;;4997089;28;20475;-82
2022/03/24 09:42:46;;;;;;;27.13;21.27;;;13.30;1.00;13.30;101748.00;;;;4991789;28;20455;-84
2022/03/24 09:45:14;;;;;;;23.07;20.60;;;13.40;1.00;13.40;101738.00;;;;4993260;28;20458;-82
2022/03/24 09:47:44;;;;;;;29.10;21.90;;;13.50;1.00;13.50;101750.00;;;;4993121;28;20468;-83
2022/03/24 09:50:14;;;;;;;24.17;21.60;;;13.60;1.00;13.50;101741.00;;;;4992595;28;20462;-82
2022/03/24 09:52:42;;;;;;;25.10;21.10;;;13.70;1.00;13.60;101728.00;;;;4993223;28;21031;-80
2022/03/24 09:55:18;;;;;;;31.27;21.97;;;13.80;1.00;13.70;101737.00;;;;4982321;28;20532;-81
2022/03/24 09:57:48;;;;;;;28.87;21.53;;;13.90;1.00;13.80;101737.00;;;;4994482;28;20509;-80
2022/03/24 10:00:37;;;;;;;31.53;22.73;;;14.00;1.00;13.90;101723.00;;;;4999047;28;20551;-81
2022/03/24 10:03:12;;;;;;;27.03;21.43;;;14.00;1.00;14.00;101738.00;;;;4999349;28;20451;-82
2022/03/24 10:06:02;;;;;;;25.83;23.20;;;14.10;1.00;14.10;101729.00;;;;4999612;28;20439;-84
2022/03/24 10:08:31;;;;;;;26.40;23.30;;;14.20;1.00;14.20;101715.00;;;;4992630;28;20447;-83
2022/03/24 10:11:04;;;;;;;27.10;23.50;;;14.30;1.00;14.30;101731.00;;;;4991790;28;20438;-84
2022/03/24 10:13:49;;;;;;;27.33;22.30;;;14.40;1.00;14.40;101729.00;;;;4990358;28;21023;-82
2022/03/24 10:16:43;;;;;;;29.90;24.17;;;14.50;1.00;14.30;101729.00;;;;5015071;28;20491;-84
2022/03/24 10:19:15;;;;;;;29.67;24.20;;;14.90;1.00;14.60;101691.00;;;;5000649;28;20535;-86
2022/03/24 10:21:50;;;;;;;27.93;24.30;;;14.80;1.00;14.70;101738.00;;;;4998791;28;20476;-82
2022/03/24 10:24:21;;;;;;;26.43;23.33;;;14.90;1.00;14.90;101723.00;;;;5003776;28;20553;-82
2022/03/24 10:26:55;;;;;;;31.20;24.90;;;15.10;1.00;14.90;101719.00;;;;4989969;28;20460;-82
2022/03/24 10:29:25;;;;;;;29.13;24.83;;;15.10;1.00;15.00;101730.00;;;;4988376;28;20464;-81
2022/03/24 10:31:54;;;;;;;31.30;25.07;;;15.10;1.00;15.10;101731.00;;;;4988653;28;20511;-81
2022/03/24 10:34:32;;;;;;;31.20;25.10;;;15.30;1.00;15.20;101710.00;;;;4986510;28;20483;-80
2022/03/24 10:37:04;;;;;;;28.50;25.40;;;15.40;1.00;15.30;101709.00;;;;4983298;28;20506;-80
2022/03/24 10:39:33;;;;;;;27.20;23.63;;;15.50;1.00;15.40;101712.00;;;;4978215;28;20460;-80
2022/03/24 10:42:18;;;;;;;28.93;24.80;;;15.80;1.00;15.60;101716.00;;;;4978712;28;20567;-83
2022/03/24 10:45:11;;;;;;;30.03;25.80;;;15.90;1.00;15.70;101715.00;;;;4990039;28;20479;-83
2022/03/24 10:47:43;;;;;;;37.30;27.07;;;15.90;1.00;15.80;101729.00;;;;4992727;28;20440;-82
2022/03/24 10:50:37;;;;;;;27.77;24.77;;;16.00;1.00;15.90;101722.00;;;;4992892;28;20470;-83
2022/03/24 10:53:08;;;;;;;32.63;25.13;;;16.10;1.00;15.90;101716.00;;;;4992190;28;20451;-84
2022/03/24 10:55:55;;;;;;;29.53;26.27;;;16.20;1.00;16.00;101714.00;;;;4989925;28;20450;-85
2022/03/24 10:58:33;;;;;;;30.77;27.47;;;16.40;1.00;16.20;101718.00;;;;4986406;28;20482;-84
2022/03/24 11:01:04;;;;;;;31.47;26.47;;;16.40;1.00;16.30;101705.00;;;;4978174;28;20453;-83
2022/03/24 11:03:34;;;;;;;29.83;25.40;;;16.50;1.00;16.40;101703.00;;;;4979728;28;20494;-83
2022/03/24 11:06:17;;;;;;;30.70;26.37;;;16.60;1.00;16.50;101707.00;;;;4977976;28;20471;-83